createdAt,value
2023-03-27T00:02:01.803Z,5.18
2023-03-27T00:04:36.012Z,5.16
2023-03-27T00:07:09.942Z,5.10
2023-03-27T00:09:44.939Z,5.12
2023-03-27T00:12:18.857Z,5.15
2023-03-27T00:14:52.968Z,5.11
2023-03-27T00:17:26.411Z,5.14
2023-03-27T00:20:00.064Z,5.07
2023-03-27T00:22:34.183Z,5.07
2023-03-27T00:25:08.027Z,5.01
2023-03-27T00:27:42.243Z,5.13
2023-03-27T00:30:16.307Z,5.08
2023-03-27T00:32:50.339Z,5.13
2023-03-27T00:35:25.635Z,5.12
2023-03-27T00:37:59.697Z,5.07
2023-03-27T00:40:34.108Z,5.05
2023-03-27T00:43:28.392Z,5.08
2023-03-27T00:46:15.437Z,5.02
2023-03-27T00:48:53.105Z,5.06
2023-03-27T00:51:28.780Z,5.01
2023-03-27T00:54:03.304Z,4.97
2023-03-27T00:56:42.039Z,4.88
2023-03-27T00:59:21.900Z,4.84
2023-03-27T01:01:56.164Z,4.87
2023-03-27T01:04:30.507Z,4.83
2023-03-27T01:07:06.238Z,4.76
2023-03-27T01:09:40.624Z,4.76
2023-03-27T01:12:51.974Z,4.69
2023-03-27T01:15:43.772Z,4.63
2023-03-27T01:18:57.684Z,4.56
2023-03-27T01:21:48.531Z,4.57
2023-03-27T01:24:56.446Z,4.57
2023-03-27T01:28:06.569Z,4.56
2023-03-27T01:30:52.905Z,4.60
2023-03-27T01:33:50.238Z,4.57
2023-03-27T01:36:56.184Z,4.58
2023-03-27T01:39:58.670Z,4.58
2023-03-27T01:43:14.689Z,4.53
2023-03-27T01:46:06.766Z,4.53
2023-03-27T01:48:48.423Z,4.52
2023-03-27T01:51:44.485Z,4.49
2023-03-27T01:54:29.397Z,4.44
2023-03-27T01:57:25.411Z,4.36
2023-03-27T02:00:18.133Z,4.33
2023-03-27T02:03:02.388Z,4.31
2023-03-27T02:05:53.742Z,4.32
2023-03-27T02:08:38.031Z,4.29
2023-03-27T02:11:29.697Z,4.29
2023-03-27T02:14:21.078Z,4.27
2023-03-27T02:17:00.387Z,4.26
2023-03-27T02:19:48.180Z,4.23
2023-03-27T02:22:37.570Z,4.21
2023-03-27T02:25:43.327Z,4.16
2023-03-27T02:28:29.949Z,4.09
2023-03-27T02:31:40.760Z,3.97
2023-03-27T02:34:34.884Z,4.00
2023-03-27T02:37:20.282Z,3.98
2023-03-27T02:41:01.661Z,3.97
2023-03-27T02:44:02.358Z,4.00
2023-03-27T02:47:00.263Z,4.00
2023-03-27T02:49:43.900Z,3.98
2023-03-27T02:52:27.959Z,3.91
2023-03-27T02:55:11.281Z,3.95
2023-03-27T02:57:52.225Z,3.81
2023-03-27T03:00:49.550Z,3.76
2023-03-27T03:04:10.166Z,3.90
2023-03-27T03:07:14.814Z,3.98
2023-03-27T03:09:48.950Z,4.02
2023-03-27T03:12:22.264Z,4.01
2023-03-27T03:14:55.506Z,4.02
2023-03-27T03:17:28.754Z,3.92
2023-03-27T03:20:02.328Z,4.07
2023-03-27T03:22:37.047Z,4.08
2023-03-27T03:25:11.289Z,4.03
2023-03-27T03:27:46.587Z,4.05
2023-03-27T03:30:20.123Z,4.13
2023-03-27T03:33:02.903Z,4.17
2023-03-27T03:35:36.059Z,4.18
2023-03-27T03:38:16.796Z,4.25
2023-03-27T03:40:52.142Z,4.26
2023-03-27T03:43:27.978Z,4.22
2023-03-27T03:46:01.807Z,4.26
2023-03-27T03:48:35.109Z,4.24
2023-03-27T03:51:08.734Z,4.23
2023-03-27T03:53:42.174Z,4.21
2023-03-27T03:56:16.101Z,4.19
2023-03-27T03:58:49.903Z,4.13
2023-03-27T04:01:24.007Z,4.17
2023-03-27T04:04:00.717Z,4.22
2023-03-27T04:06:38.882Z,4.26
2023-03-27T04:09:12.105Z,4.24
2023-03-27T04:12:03.379Z,4.36
2023-03-27T04:15:08.206Z,4.40
2023-03-27T04:18:01.908Z,4.41
2023-03-27T04:20:36.020Z,4.35
2023-03-27T04:23:10.467Z,4.41
2023-03-27T04:25:46.935Z,4.45
2023-03-27T04:28:24.112Z,4.33
2023-03-27T04:31:08.289Z,4.31
2023-03-27T04:34:03.862Z,4.38
2023-03-27T04:36:58.502Z,4.32
2023-03-27T04:39:36.946Z,4.36
2023-03-27T04:42:10.965Z,4.34
2023-03-27T04:44:46.750Z,4.36
2023-03-27T04:47:21.130Z,4.38
2023-03-27T04:49:55.725Z,4.41
2023-03-27T04:52:33.891Z,4.55
2023-03-27T04:55:08.630Z,4.56
2023-03-27T04:57:42.458Z,4.76
2023-03-27T05:00:20.440Z,4.90
2023-03-27T05:02:56.731Z,4.94
2023-03-27T05:05:36.855Z,5.04
2023-03-27T05:08:11.842Z,5.11
2023-03-27T05:10:45.696Z,5.16
2023-03-27T05:13:19.249Z,5.24
2023-03-27T05:15:52.970Z,5.36
2023-03-27T05:18:31.283Z,5.49
2023-03-27T05:21:04.075Z,5.56
2023-03-27T05:23:38.202Z,5.68
2023-03-27T05:26:13.443Z,5.79
2023-03-27T05:29:00.978Z,5.99
2023-03-27T05:31:34.848Z,6.21
2023-03-27T05:34:29.099Z,6.36
2023-03-27T05:37:06.567Z,6.58
2023-03-27T05:39:47.347Z,6.82
2023-03-27T05:42:20.661Z,7.05
2023-03-27T05:44:54.009Z,7.30
2023-03-27T05:47:28.342Z,7.43
2023-03-27T05:50:01.871Z,7.60
2023-03-27T05:52:35.595Z,7.75
2023-03-27T05:55:09.485Z,7.86
2023-03-27T05:57:44.495Z,7.96
2023-03-27T06:00:26.029Z,8.19
2023-03-27T06:03:01.549Z,8.35
2023-03-27T06:05:56.419Z,8.51
2023-03-27T06:08:30.228Z,8.61
2023-03-27T06:11:03.853Z,8.81
2023-03-27T06:13:41.358Z,8.90
2023-03-27T06:16:17.484Z,8.95
2023-03-27T06:18:50.910Z,8.95
2023-03-27T06:21:25.502Z,9.10
2023-03-27T06:24:05.635Z,9.40
2023-03-27T06:26:39.713Z,9.54
2023-03-27T06:29:13.982Z,9.78
2023-03-27T06:31:54.383Z,9.88
2023-03-27T06:34:34.968Z,10.00
2023-03-27T06:37:34.540Z,10.13
2023-03-27T06:40:10.581Z,10.26
2023-03-27T06:42:55.418Z,10.26
2023-03-27T06:45:38.926Z,10.33
2023-03-27T06:48:32.228Z,10.35
2023-03-27T06:51:08.967Z,10.32
2023-03-27T06:53:42.577Z,10.32
2023-03-27T06:56:15.710Z,10.39
2023-03-27T06:59:13.787Z,10.51
2023-03-27T07:01:47.849Z,10.53
2023-03-27T07:04:54.234Z,10.66
2023-03-27T07:07:49.283Z,10.87
2023-03-27T07:10:24.509Z,10.88
2023-03-27T07:13:02.433Z,10.91
2023-03-27T07:15:36.877Z,11.03
2023-03-27T07:18:10.574Z,11.10
2023-03-27T07:20:44.208Z,11.18
2023-03-27T07:23:20.111Z,11.25
2023-03-27T07:26:02.441Z,11.26
2023-03-27T07:29:01.203Z,11.35
2023-03-27T07:34:18.995Z,11.38
2023-03-27T07:37:18.198Z,11.46
2023-03-27T07:40:33.039Z,11.57
2023-03-27T07:43:39.077Z,11.67
2023-03-27T07:46:12.860Z,11.81
2023-03-27T07:48:46.139Z,11.84
2023-03-27T07:51:23.804Z,11.88
2023-03-27T07:53:59.133Z,11.91
2023-03-27T07:56:39.114Z,12.07
2023-03-27T07:59:32.796Z,12.12
2023-03-27T08:02:18.350Z,12.12
2023-03-27T08:04:52.537Z,12.19
2023-03-27T08:07:26.414Z,12.26
2023-03-27T08:10:01.607Z,12.26
2023-03-27T08:12:42.860Z,12.36
2023-03-27T08:15:16.346Z,12.53
2023-03-27T08:17:56.758Z,12.59
2023-03-27T08:20:31.355Z,12.81
2023-03-27T08:23:04.863Z,12.93
2023-03-27T08:25:37.977Z,13.07
2023-03-27T08:28:13.098Z,13.12
2023-03-27T08:30:46.748Z,13.19
2023-03-27T08:33:19.968Z,13.29
2023-03-27T08:35:53.332Z,13.51
2023-03-27T08:38:33.880Z,13.76
2023-03-27T08:41:28.001Z,14.01
2023-03-27T08:44:31.288Z,14.42
2023-03-27T08:47:28.572Z,14.72
2023-03-27T08:50:29.789Z,15.01
2023-03-27T08:53:33.496Z,15.36
2023-03-27T08:56:08.189Z,15.65
2023-03-27T08:58:47.043Z,15.94
2023-03-27T09:02:01.741Z,16.20
2023-03-27T09:05:05.947Z,16.47
2023-03-27T09:07:57.469Z,16.46
2023-03-27T09:11:11.462Z,16.62
2023-03-27T09:13:54.260Z,16.64
2023-03-27T09:16:33.831Z,16.62
2023-03-27T09:19:38.336Z,16.66
2023-03-27T09:22:41.448Z,16.56
2023-03-27T09:25:30.567Z,16.53
2023-03-27T09:28:36.270Z,16.58
2023-03-27T09:31:35.845Z,16.64
2023-03-27T09:34:16.098Z,16.77
2023-03-27T09:36:52.113Z,16.88
2023-03-27T09:39:35.444Z,17.02
2023-03-27T09:42:28.482Z,17.17
2023-03-27T09:45:05.194Z,17.29
2023-03-27T09:48:01.904Z,17.34
2023-03-27T09:50:47.682Z,17.34
2023-03-27T09:54:00.624Z,17.23
2023-03-27T09:57:13.963Z,17.11
2023-03-27T10:00:10.492Z,17.06
2023-03-27T10:02:47.658Z,16.94
2023-03-27T10:05:25.719Z,16.86
2023-03-27T10:08:03.302Z,16.82
2023-03-27T10:10:58.454Z,16.74
2023-03-27T10:13:56.486Z,16.70
2023-03-27T10:16:32.053Z,16.65
2023-03-27T10:19:22.846Z,16.65
2023-03-27T10:21:57.917Z,16.64
2023-03-27T10:24:45.812Z,16.71
2023-03-27T10:27:54.326Z,16.80
2023-03-27T10:30:31.861Z,16.90
2023-03-27T10:33:40.463Z,17.07
2023-03-27T10:36:28.736Z,17.18
2023-03-27T10:39:08.107Z,17.28
2023-03-27T10:41:50.839Z,17.27
2023-03-27T10:44:28.271Z,17.30
2023-03-27T10:47:03.072Z,17.33
2023-03-27T10:49:54.945Z,17.39
2023-03-27T10:52:54.334Z,17.53
2023-03-27T10:56:10.040Z,17.64
2023-03-27T10:59:02.849Z,17.59
2023-03-27T11:01:47.924Z,17.60
2023-03-27T11:04:40.903Z,17.54
2023-03-27T11:07:27.849Z,17.55
2023-03-27T11:10:23.424Z,17.51
2023-03-27T11:13:08.669Z,17.48
2023-03-27T11:15:50.477Z,17.52
2023-03-27T11:19:08.648Z,17.61
2023-03-27T11:21:55.972Z,17.67
2023-03-27T11:24:45.759Z,17.70
2023-03-27T11:27:22.287Z,17.75
2023-03-27T11:30:30.427Z,17.76
2023-03-27T11:33:56.294Z,17.61
2023-03-27T11:36:54.378Z,17.64
2023-03-27T11:40:01.197Z,17.48
2023-03-27T11:42:40.439Z,17.40
2023-03-27T11:45:17.099Z,17.41
2023-03-27T11:47:57.790Z,17.36
2023-03-27T11:50:46.997Z,17.29
2023-03-27T11:53:39.463Z,17.26
2023-03-27T11:56:34.138Z,17.17
2023-03-27T11:59:50.878Z,17.08
2023-03-27T12:02:34.519Z,16.99
2023-03-27T12:05:26.288Z,16.98
2023-03-27T12:08:30.139Z,17.12
2023-03-27T12:11:05.565Z,17.13
2023-03-27T12:14:01.551Z,17.05
2023-03-27T12:17:28.131Z,17.06
2023-03-27T12:20:51.791Z,17.03
2023-03-27T12:24:05.871Z,17.05
2023-03-27T12:27:25.134Z,17.08
2023-03-27T12:30:19.456Z,17.17
2023-03-27T12:33:10.430Z,17.23
2023-03-27T12:35:54.357Z,17.35
2023-03-27T12:38:39.049Z,17.36
2023-03-27T12:41:14.592Z,17.50
2023-03-27T12:44:31.894Z,17.69
2023-03-27T12:47:15.919Z,17.77
2023-03-27T12:50:01.876Z,17.91
2023-03-27T12:52:41.222Z,18.01
2023-03-27T12:55:23.365Z,18.19
2023-03-27T12:58:06.196Z,18.34
2023-03-27T13:01:01.150Z,18.47
2023-03-27T13:04:22.980Z,18.76
2023-03-27T13:07:23.993Z,18.85
2023-03-27T13:10:45.434Z,19.03
2023-03-27T13:13:46.131Z,19.13
2023-03-27T13:16:26.651Z,19.27
2023-03-27T13:19:23.429Z,19.47
2023-03-27T13:22:11.639Z,19.69
2023-03-27T13:25:11.837Z,19.71
2023-03-27T13:28:09.550Z,19.27
2023-03-27T13:30:57.139Z,19.40
2023-03-27T13:34:26.317Z,19.42
2023-03-27T13:37:18.431Z,19.41
2023-03-27T13:40:00.235Z,19.45
2023-03-27T13:42:43.277Z,19.55
2023-03-27T13:45:47.366Z,19.65
2023-03-27T13:49:11.452Z,19.65
2023-03-27T13:52:24.238Z,19.48
2023-03-27T13:55:17.828Z,19.51
2023-03-27T13:58:29.492Z,19.54
2023-03-27T14:01:28.129Z,19.56
2023-03-27T14:04:34.020Z,19.47
2023-03-27T14:07:39.911Z,19.52
2023-03-27T14:10:46.571Z,19.51
2023-03-27T14:13:22.387Z,19.46
2023-03-27T14:16:32.739Z,19.37
2023-03-27T14:19:51.070Z,19.28
2023-03-27T14:22:45.121Z,19.32
2023-03-27T14:25:20.941Z,19.22
2023-03-27T14:28:01.029Z,19.26
2023-03-27T14:30:50.723Z,19.23
2023-03-27T14:34:16.074Z,19.24
2023-03-27T14:36:52.421Z,19.20
2023-03-27T14:39:40.114Z,19.09
2023-03-27T14:42:22.970Z,19.06
2023-03-27T14:45:24.135Z,18.97
2023-03-27T14:48:05.570Z,18.92
2023-03-27T14:50:50.914Z,18.79
2023-03-27T14:53:36.862Z,18.67
2023-03-27T14:56:38.608Z,18.55
2023-03-27T14:59:38.178Z,18.55
2023-03-27T15:02:32.300Z,18.47
2023-03-27T15:05:19.673Z,18.35
2023-03-27T15:07:57.537Z,18.14
2023-03-27T15:10:54.447Z,17.94
2023-03-27T15:13:49.327Z,17.75
2023-03-27T15:16:32.627Z,17.61
2023-03-27T15:19:14.748Z,17.48
2023-03-27T15:21:59.805Z,17.34
2023-03-27T15:24:49.893Z,17.14
2023-03-27T15:27:35.397Z,16.97
2023-03-27T15:30:25.930Z,16.85
2023-03-27T15:33:02.488Z,16.66
2023-03-27T15:35:45.578Z,16.58
2023-03-27T15:38:20.187Z,16.41
2023-03-27T15:41:04.703Z,16.26
2023-03-27T15:43:37.592Z,16.08
2023-03-27T15:46:17.721Z,16.05
2023-03-27T15:48:58.114Z,15.97
2023-03-27T15:51:32.779Z,15.92
2023-03-27T15:54:26.540Z,15.85
2023-03-27T15:57:10.877Z,15.77
2023-03-27T15:59:53.016Z,15.60
2023-03-27T16:02:28.881Z,15.57
2023-03-27T16:05:02.239Z,15.44
2023-03-27T16:07:48.972Z,15.32
2023-03-27T16:10:34.213Z,15.23
2023-03-27T16:13:09.617Z,15.10
2023-03-27T16:15:45.597Z,15.01
2023-03-27T16:18:22.616Z,14.86
2023-03-27T16:20:55.907Z,14.81
2023-03-27T16:23:28.607Z,14.72
2023-03-27T16:26:03.634Z,14.63
2023-03-27T16:28:37.327Z,14.56
2023-03-27T16:31:20.881Z,14.45
2023-03-27T16:33:54.053Z,14.44
2023-03-27T16:36:34.078Z,14.36
2023-03-27T16:39:08.334Z,14.36
2023-03-27T16:41:41.666Z,14.33
2023-03-27T16:44:15.048Z,14.27
2023-03-27T16:46:48.644Z,14.24
2023-03-27T16:49:21.718Z,14.25
2023-03-27T16:51:54.669Z,14.14
2023-03-27T16:54:27.768Z,14.13
2023-03-27T16:57:01.627Z,14.06
2023-03-27T16:59:34.451Z,14.03
2023-03-27T17:02:07.364Z,14.01
2023-03-27T17:04:40.986Z,13.82
2023-03-27T17:07:13.803Z,13.84
2023-03-27T17:09:46.496Z,13.78
2023-03-27T17:12:19.377Z,13.64
2023-03-27T17:14:53.032Z,13.51
2023-03-27T17:17:27.699Z,13.46
2023-03-27T17:20:00.968Z,13.36
2023-03-27T17:22:33.931Z,13.30
2023-03-27T17:25:07.702Z,13.24
2023-03-27T17:27:41.099Z,13.18
2023-03-27T17:30:17.647Z,13.16
2023-03-27T17:32:55.960Z,13.11
2023-03-27T17:35:29.235Z,13.11
2023-03-27T17:38:02.501Z,13.11
2023-03-27T17:40:36.025Z,13.06
2023-03-27T17:43:09.316Z,13.00
2023-03-27T17:45:46.455Z,12.98
2023-03-27T17:48:21.337Z,12.97
2023-03-27T17:51:07.388Z,12.91
2023-03-27T17:53:44.757Z,12.84
2023-03-27T17:56:17.586Z,12.86
2023-03-27T17:58:50.857Z,12.86
2023-03-27T18:01:25.122Z,12.79
2023-03-27T18:04:00.953Z,12.71
2023-03-27T18:06:34.219Z,12.65
2023-03-27T18:09:07.748Z,12.57
2023-03-27T18:11:41.248Z,12.50
2023-03-27T18:14:14.979Z,12.49
2023-03-27T18:16:48.169Z,12.46
2023-03-27T18:19:21.369Z,12.36
2023-03-27T18:21:54.424Z,12.30
2023-03-27T18:24:27.345Z,12.29
2023-03-27T18:27:00.594Z,12.25
2023-03-27T18:29:34.990Z,12.20
2023-03-27T18:32:08.945Z,12.11
2023-03-27T18:34:42.484Z,11.99
2023-03-27T18:37:15.958Z,11.90
2023-03-27T18:39:48.664Z,11.78
2023-03-27T18:42:21.435Z,11.73
2023-03-27T18:44:54.816Z,11.72
2023-03-27T18:47:28.931Z,11.67
2023-03-27T18:50:02.451Z,11.52
2023-03-27T18:52:35.826Z,11.58
2023-03-27T18:55:09.743Z,11.51
2023-03-27T18:57:42.641Z,11.36
2023-03-27T19:00:18.870Z,11.47
2023-03-27T19:02:52.715Z,11.45
2023-03-27T19:05:25.998Z,11.40
2023-03-27T19:08:00.316Z,11.38
2023-03-27T19:10:35.992Z,11.33
2023-03-27T19:13:23.487Z,11.31
2023-03-27T19:15:56.646Z,11.31
2023-03-27T19:19:06.628Z,11.26
2023-03-27T19:21:46.989Z,11.33
2023-03-27T19:24:30.087Z,11.32
2023-03-27T19:27:03.254Z,11.48
2023-03-27T19:29:36.031Z,11.55
2023-03-27T19:32:08.964Z,11.59
2023-03-27T19:34:43.040Z,11.61
2023-03-27T19:37:16.190Z,11.62
2023-03-27T19:39:49.713Z,11.70
2023-03-27T19:42:22.442Z,11.65
2023-03-27T19:44:55.526Z,11.67
2023-03-27T19:47:28.549Z,11.58
2023-03-27T19:50:02.386Z,11.54
2023-03-27T19:53:08.289Z,11.52
2023-03-27T19:55:44.066Z,11.46
2023-03-27T19:58:16.978Z,11.48
2023-03-27T20:00:51.745Z,11.45
2023-03-27T20:03:29.845Z,11.42
2023-03-27T20:06:07.616Z,11.38
2023-03-27T20:08:41.417Z,11.36
2023-03-27T20:11:14.550Z,11.39
2023-03-27T20:13:56.153Z,11.33
2023-03-27T20:16:32.020Z,11.37
2023-03-27T20:19:05.432Z,11.36
2023-03-27T20:21:44.242Z,11.37
2023-03-27T20:24:19.628Z,11.44
2023-03-27T20:26:57.627Z,11.46
2023-03-27T20:29:31.550Z,11.42
2023-03-27T20:32:06.339Z,11.35
2023-03-27T20:34:41.001Z,11.42
2023-03-27T20:37:15.020Z,11.42
2023-03-27T20:40:07.972Z,11.41
2023-03-27T20:42:49.124Z,11.36
2023-03-27T20:45:27.657Z,11.33
2023-03-27T20:48:09.420Z,11.36
2023-03-27T20:50:56.292Z,11.37
2023-03-27T20:53:34.067Z,11.38
2023-03-27T20:56:09.546Z,11.37
2023-03-27T20:58:45.012Z,11.31
2023-03-27T21:01:21.774Z,11.26
2023-03-27T21:03:58.812Z,11.24
2023-03-27T21:06:32.313Z,11.32
2023-03-27T21:09:05.969Z,11.33
2023-03-27T21:11:39.877Z,11.31
2023-03-27T21:14:13.698Z,11.22
2023-03-27T21:16:46.616Z,11.17
2023-03-27T21:19:19.638Z,11.25
2023-03-27T21:21:53.239Z,11.22
2023-03-27T21:24:26.184Z,11.25
2023-03-27T21:27:00.433Z,11.31
2023-03-27T21:29:33.050Z,11.31
2023-03-27T21:32:06.202Z,11.37
2023-03-27T21:34:39.923Z,11.34
2023-03-27T21:37:13.764Z,11.29
2023-03-27T21:39:47.023Z,11.21
2023-03-27T21:42:22.068Z,11.29
2023-03-27T21:44:57.044Z,11.30
2023-03-27T21:47:44.632Z,11.21
2023-03-27T21:50:21.649Z,11.20
2023-03-27T21:52:54.961Z,11.28
2023-03-27T21:55:28.564Z,11.34
2023-03-27T21:58:01.973Z,11.37
2023-03-27T22:00:35.468Z,11.43
2023-03-27T22:03:09.283Z,11.46
2023-03-27T22:05:43.963Z,11.44
2023-03-27T22:08:19.633Z,11.44
2023-03-27T22:10:53.157Z,11.47
2023-03-27T22:13:26.704Z,11.46
2023-03-27T22:16:01.221Z,11.50
2023-03-27T22:18:35.151Z,11.59
2023-03-27T22:21:26.179Z,11.60
2023-03-27T22:24:00.629Z,11.49
2023-03-27T22:26:37.064Z,11.52
2023-03-27T22:29:11.241Z,11.60
2023-03-27T22:31:44.866Z,11.66
2023-03-27T22:34:18.684Z,11.70
2023-03-27T22:36:52.383Z,11.74
2023-03-27T22:39:26.044Z,11.74
2023-03-27T22:41:59.667Z,11.73
2023-03-27T22:44:33.555Z,11.71
2023-03-27T22:47:07.377Z,11.67
2023-03-27T22:49:40.497Z,11.70
2023-03-27T22:52:14.562Z,11.72
2023-03-27T22:54:47.636Z,11.76
2023-03-27T22:57:21.280Z,11.80
2023-03-27T22:59:54.470Z,11.82
2023-03-27T23:02:28.299Z,11.77
2023-03-27T23:05:02.426Z,11.84
2023-03-27T23:07:36.471Z,11.85
2023-03-27T23:10:10.214Z,11.82
2023-03-27T23:12:43.395Z,11.80
2023-03-27T23:15:17.136Z,11.77
2023-03-27T23:18:06.063Z,11.75
2023-03-27T23:20:41.030Z,11.73
2023-03-27T23:23:14.334Z,11.73
2023-03-27T23:25:47.358Z,11.63
2023-03-27T23:28:20.854Z,11.73
2023-03-27T23:31:09.340Z,11.76
2023-03-27T23:33:44.702Z,11.82
2023-03-27T23:36:24.002Z,11.87
2023-03-27T23:38:57.260Z,11.91
2023-03-27T23:41:30.646Z,11.88
2023-03-27T23:44:03.689Z,11.95
2023-03-27T23:46:36.693Z,11.93
2023-03-27T23:49:10.029Z,11.95
2023-03-27T23:51:43.118Z,11.86
2023-03-27T23:54:16.612Z,11.82
2023-03-27T23:56:50.389Z,11.85
2023-03-27T23:59:23.738Z,11.87
